createdAt,value
2018-08-08T00:00:26.579Z,15.68
2018-08-08T00:02:54.154Z,11.68
2018-08-08T00:05:21.638Z,15.35
2018-08-08T00:07:49.052Z,12.35
2018-08-08T00:10:16.565Z,11.77
2018-08-08T00:12:43.999Z,13.65
2018-08-08T00:15:11.455Z,10.73
2018-08-08T00:17:38.895Z,13.13
2018-08-08T00:20:06.330Z,13.23
2018-08-08T00:22:33.796Z,13.20
2018-08-08T00:25:01.240Z,12.65
2018-08-08T00:27:28.675Z,10.25
2018-08-08T00:29:56.191Z,12.32
2018-08-08T00:32:23.652Z,12.15
2018-08-08T00:34:51.161Z,13.07
2018-08-08T00:37:18.601Z,9.57
2018-08-08T00:39:46.080Z,10.77
2018-08-08T00:42:13.475Z,10.27
2018-08-08T00:44:40.927Z,13.48
2018-08-08T00:47:08.366Z,13.30
2018-08-08T00:49:35.830Z,10.00
2018-08-08T00:52:03.311Z,11.95
2018-08-08T00:54:30.780Z,11.65
2018-08-08T00:56:58.252Z,12.63
2018-08-08T00:59:25.691Z,13.95
2018-08-08T01:01:53.123Z,12.20
2018-08-08T01:04:20.776Z,10.95
2018-08-08T01:06:48.253Z,11.80
2018-08-08T01:09:15.706Z,10.77
2018-08-08T01:11:43.142Z,16.77
2018-08-08T01:14:10.571Z,12.15
2018-08-08T01:16:38.035Z,10.07
2018-08-08T01:19:05.537Z,12.40
2018-08-08T01:21:33.026Z,11.00
2018-08-08T01:24:00.459Z,13.02
2018-08-08T01:26:27.910Z,11.75
2018-08-08T01:28:55.367Z,12.95
2018-08-08T01:31:22.891Z,12.18
2018-08-08T01:33:50.359Z,12.57
2018-08-08T01:36:17.809Z,10.32
2018-08-08T01:38:45.214Z,11.60
2018-08-08T01:41:12.687Z,15.80
2018-08-08T01:43:40.098Z,11.65
2018-08-08T01:46:07.547Z,12.35
2018-08-08T01:48:35.000Z,12.50
2018-08-08T01:51:02.540Z,13.15
2018-08-08T01:53:30.011Z,13.77
2018-08-08T01:55:57.493Z,12.88
2018-08-08T01:58:24.915Z,13.35
2018-08-08T02:00:52.412Z,17.92
2018-08-08T02:03:19.850Z,11.43
2018-08-08T02:05:47.309Z,13.65
2018-08-08T02:08:14.752Z,12.07
2018-08-08T02:10:42.146Z,13.48
2018-08-08T02:13:09.599Z,12.07
2018-08-08T02:15:37.061Z,11.38
2018-08-08T02:18:04.569Z,16.05
2018-08-08T02:20:32.084Z,12.50
2018-08-08T02:22:59.476Z,12.60
2018-08-08T02:25:26.979Z,12.48
2018-08-08T02:27:54.459Z,16.42
2018-08-08T02:30:21.939Z,13.85
2018-08-08T02:32:49.452Z,12.13
2018-08-08T02:35:16.866Z,14.07
2018-08-08T02:37:44.330Z,11.70
2018-08-08T02:40:11.779Z,12.00
2018-08-08T02:42:39.217Z,14.48
2018-08-08T02:45:06.845Z,12.70
2018-08-08T02:47:34.343Z,14.38
2018-08-08T02:50:01.944Z,11.73
2018-08-08T02:52:30.440Z,16.30
2018-08-08T02:54:57.947Z,13.20
2018-08-08T02:57:25.361Z,11.27
2018-08-08T02:59:52.831Z,12.07
2018-08-08T03:02:20.237Z,15.02
2018-08-08T03:04:47.731Z,14.52
2018-08-08T03:07:15.170Z,12.77
2018-08-08T03:09:42.647Z,12.52
2018-08-08T03:12:10.160Z,13.70
2018-08-08T03:14:37.611Z,10.88
2018-08-08T03:17:05.038Z,13.57
2018-08-08T03:19:32.484Z,13.80
2018-08-08T03:21:59.965Z,12.80
2018-08-08T03:24:27.438Z,12.25
2018-08-08T03:26:54.842Z,20.08
2018-08-08T03:29:22.287Z,12.20
2018-08-08T03:31:49.718Z,13.10
2018-08-08T03:34:17.212Z,14.95
2018-08-08T03:36:44.633Z,14.63
2018-08-08T03:39:12.106Z,12.85
2018-08-08T03:41:39.555Z,16.65
2018-08-08T03:44:07.024Z,13.30
2018-08-08T03:46:34.507Z,13.25
2018-08-08T03:49:02.019Z,16.98
2018-08-08T03:51:29.510Z,14.50
2018-08-08T03:53:56.987Z,16.52
2018-08-08T03:56:24.444Z,13.80
2018-08-08T03:58:51.936Z,11.80
2018-08-08T04:01:19.372Z,14.98
2018-08-08T04:03:47.063Z,15.20
2018-08-08T04:06:14.700Z,13.13
2018-08-08T04:08:42.167Z,13.93
2018-08-08T04:11:09.620Z,48.35
2018-08-08T04:13:37.072Z,50.72
2018-08-08T04:16:05.408Z,17.10
2018-08-08T04:18:32.860Z,23.42
2018-08-08T04:21:00.361Z,16.00
2018-08-08T04:23:27.815Z,13.60
2018-08-08T04:25:55.259Z,19.42
2018-08-08T04:28:22.756Z,12.73
2018-08-08T04:30:50.158Z,12.77
2018-08-08T04:33:17.601Z,14.10
2018-08-08T04:35:45.012Z,13.50
2018-08-08T04:38:12.492Z,16.05
2018-08-08T04:40:39.938Z,10.93
2018-08-08T04:43:07.454Z,13.95
2018-08-08T04:45:34.892Z,14.48
2018-08-08T04:48:02.371Z,16.02
2018-08-08T04:50:29.816Z,13.55
2018-08-08T04:52:57.292Z,15.95
2018-08-08T04:55:24.775Z,14.60
2018-08-08T04:57:52.169Z,14.10
2018-08-08T05:00:19.662Z,17.67
2018-08-08T05:02:47.083Z,13.35
2018-08-08T05:05:14.543Z,13.15
2018-08-08T05:07:41.984Z,16.67
2018-08-08T05:10:09.449Z,15.80
2018-08-08T05:12:36.869Z,17.77
2018-08-08T05:15:04.321Z,13.80
2018-08-08T05:17:31.807Z,20.20
2018-08-08T05:19:59.316Z,18.08
2018-08-08T05:22:26.771Z,13.10
2018-08-08T05:24:54.232Z,17.08
2018-08-08T05:27:21.878Z,20.02
2018-08-08T05:29:49.335Z,16.02
2018-08-08T05:32:16.787Z,14.05
2018-08-08T05:34:44.253Z,16.20
2018-08-08T05:37:11.730Z,14.18
2018-08-08T05:39:39.162Z,15.90
2018-08-08T05:42:06.636Z,15.00
2018-08-08T05:44:34.217Z,18.05
2018-08-08T05:47:01.684Z,14.07
2018-08-08T05:49:29.190Z,14.23
2018-08-08T05:51:56.588Z,17.05
2018-08-08T05:54:24.027Z,18.52
2018-08-08T05:56:51.468Z,15.23
2018-08-08T05:59:18.896Z,11.95
2018-08-08T06:01:46.568Z,13.82
2018-08-08T06:04:14.015Z,12.50
2018-08-08T06:06:41.492Z,13.05
2018-08-08T06:09:08.938Z,12.32
2018-08-08T06:11:36.376Z,16.02
2018-08-08T06:14:03.803Z,14.50
2018-08-08T06:16:31.315Z,18.17
2018-08-08T06:18:58.789Z,16.00
2018-08-08T06:21:26.328Z,13.18
2018-08-08T06:23:53.803Z,12.73
2018-08-08T06:26:21.280Z,16.15
2018-08-08T06:28:48.720Z,12.85
2018-08-08T06:31:16.199Z,13.95
2018-08-08T06:33:43.748Z,15.70
2018-08-08T06:36:11.175Z,15.48
2018-08-08T06:38:38.953Z,17.17
2018-08-08T06:41:06.450Z,12.18
2018-08-08T06:43:33.928Z,13.45
2018-08-08T06:46:01.408Z,12.15
2018-08-08T06:48:28.961Z,13.95
2018-08-08T06:50:57.150Z,14.35
2018-08-08T06:53:24.574Z,14.85
2018-08-08T06:55:52.116Z,17.25
2018-08-08T06:58:19.522Z,12.82
2018-08-08T07:00:47.029Z,13.50
2018-08-08T07:03:14.649Z,16.67
2018-08-08T07:05:42.080Z,18.27
2018-08-08T07:08:09.573Z,14.25
2018-08-08T07:10:37.032Z,14.77
2018-08-08T07:13:04.516Z,15.10
2018-08-08T07:17:59.089Z,22.70
2018-08-08T07:22:53.519Z,13.25
2018-08-08T07:25:20.982Z,13.98
2018-08-08T07:27:48.435Z,14.23
2018-08-08T07:30:15.857Z,13.70
2018-08-08T07:32:44.105Z,19.40
2018-08-08T07:35:11.603Z,15.10
2018-08-08T07:37:39.143Z,16.50
2018-08-08T07:40:06.585Z,11.37
2018-08-08T07:42:34.103Z,12.55
2018-08-08T07:45:01.562Z,12.00
2018-08-08T07:47:29.016Z,15.27
2018-08-08T07:50:01.242Z,16.55
2018-08-08T07:52:28.755Z,13.30
2018-08-08T07:54:56.398Z,13.85
2018-08-08T07:57:24.583Z,13.65
2018-08-08T07:59:51.989Z,13.68
2018-08-08T08:02:19.446Z,13.15
2018-08-08T08:04:46.931Z,17.48
2018-08-08T08:07:14.494Z,14.70
2018-08-08T08:09:41.940Z,15.40
2018-08-08T08:12:09.520Z,13.65
2018-08-08T08:14:37.037Z,15.10
2018-08-08T08:17:04.546Z,17.50
2018-08-08T08:19:31.970Z,20.00
2018-08-08T08:21:59.742Z,15.40
2018-08-08T08:24:27.267Z,23.92
2018-08-08T08:26:54.845Z,17.55
2018-08-08T08:29:22.279Z,17.92
2018-08-08T08:31:49.686Z,18.50
2018-08-08T08:34:17.175Z,17.55
2018-08-08T08:36:44.721Z,20.85
2018-08-08T08:39:12.282Z,18.77
2018-08-08T08:41:39.797Z,18.00
2018-08-08T08:46:34.380Z,19.95
2018-08-08T09:13:32.463Z,18.00
2018-08-08T09:15:59.915Z,19.27
2018-08-08T09:18:27.396Z,14.48
2018-08-08T09:20:55.008Z,17.80
2018-08-08T09:23:22.435Z,18.60
2018-08-08T09:35:38.081Z,16.57
2018-08-08T09:43:01.098Z,19.02
2018-08-08T09:45:28.670Z,21.42
2018-08-08T09:47:56.141Z,18.17
2018-08-08T09:50:23.635Z,19.73
2018-08-08T09:52:51.121Z,18.45
2018-08-08T09:55:18.694Z,16.85
2018-08-08T09:57:46.152Z,16.20
2018-08-08T10:00:13.605Z,16.40
2018-08-08T10:02:41.119Z,17.98
2018-08-08T10:05:08.542Z,16.17
2018-08-08T10:07:36.035Z,15.90
2018-08-08T10:10:03.627Z,16.52
2018-08-08T10:12:31.078Z,16.17
2018-08-08T10:14:58.895Z,16.87
2018-08-08T10:17:26.376Z,17.80
2018-08-08T10:19:53.926Z,15.25
2018-08-08T10:22:21.445Z,16.62
2018-08-08T10:24:49.239Z,18.70
2018-08-08T10:27:18.412Z,16.92
2018-08-08T10:29:45.908Z,17.20
2018-08-08T10:46:55.583Z,22.43
2018-08-08T10:49:23.046Z,19.77
2018-08-08T10:51:50.484Z,25.35
2018-08-08T10:59:11.896Z,20.42
2018-08-08T11:01:39.336Z,17.05
2018-08-08T11:04:06.789Z,25.10
2018-08-08T11:06:34.202Z,19.73
2018-08-08T11:31:04.904Z,26.60
2018-08-08T11:35:59.415Z,22.23
2018-08-08T11:38:26.924Z,28.75
2018-08-08T11:40:54.625Z,24.75
2018-08-08T11:43:22.158Z,22.80
2018-08-08T11:45:49.666Z,26.77
2018-08-08T11:48:17.126Z,26.33
2018-08-08T11:50:44.584Z,22.62
2018-08-08T11:53:12.024Z,22.17
2018-08-08T11:55:39.790Z,24.10
2018-08-08T11:58:07.308Z,25.37
2018-08-08T12:00:34.798Z,24.80
2018-08-08T12:03:02.339Z,22.65
2018-08-08T12:05:29.765Z,23.33
2018-08-08T12:07:57.406Z,25.02
2018-08-08T12:10:24.883Z,22.25
2018-08-08T12:12:52.330Z,19.80
2018-08-08T12:15:19.769Z,22.92
2018-08-08T12:17:47.256Z,23.83
2018-08-08T12:20:14.707Z,24.50
2018-08-08T12:22:42.109Z,21.52
2018-08-08T12:25:09.651Z,20.05
2018-08-08T12:27:37.060Z,21.95
2018-08-08T12:30:04.552Z,21.95
2018-08-08T12:32:32.015Z,25.48
2018-08-08T12:34:59.446Z,20.73
2018-08-08T12:37:26.898Z,22.90
2018-08-08T12:39:54.387Z,21.45
2018-08-08T12:42:22.108Z,22.30
2018-08-08T12:44:49.644Z,19.35
2018-08-08T12:47:17.128Z,25.05
2018-08-08T12:49:44.637Z,26.95
2018-08-08T12:52:13.077Z,24.10
2018-08-08T12:54:40.520Z,31.10
2018-08-08T12:57:07.964Z,26.33
2018-08-08T12:59:35.429Z,21.55
2018-08-08T13:02:02.923Z,27.23
2018-08-08T13:04:30.342Z,31.10
2018-08-08T13:06:57.859Z,36.10
2018-08-08T13:09:25.394Z,25.98
2018-08-08T13:11:52.862Z,26.60
2018-08-08T13:14:20.557Z,30.60
2018-08-08T13:16:47.892Z,28.02
2018-08-08T13:19:15.377Z,25.17
2018-08-08T13:21:42.829Z,20.35
2018-08-08T13:24:10.361Z,25.95
2018-08-08T13:26:37.901Z,23.10
2018-08-08T13:29:05.423Z,19.77
2018-08-08T13:31:32.892Z,25.88
2018-08-08T13:34:00.401Z,29.00
2018-08-08T13:36:27.802Z,25.60
2018-08-08T13:38:55.261Z,24.63
2018-08-08T13:41:22.992Z,28.45
2018-08-08T13:43:50.468Z,28.70
2018-08-08T13:46:17.890Z,28.30
2018-08-08T13:48:45.463Z,27.77
2018-08-08T13:51:12.886Z,25.20
2018-08-08T13:53:40.372Z,36.30
2018-08-08T13:56:07.803Z,32.40
2018-08-08T13:58:35.415Z,27.83
2018-08-08T14:08:23.833Z,31.73
2018-08-08T14:10:51.373Z,32.65
2018-08-08T14:13:18.818Z,34.40
2018-08-08T14:15:46.292Z,26.80
2018-08-08T14:18:13.870Z,30.55
2018-08-08T14:20:41.417Z,33.47
2018-08-08T14:23:08.852Z,30.93
2018-08-08T14:25:36.317Z,30.45
2018-08-08T14:28:03.819Z,38.03
2018-08-08T14:30:31.248Z,31.62
2018-08-08T14:32:58.717Z,25.48
2018-08-08T14:35:26.200Z,32.60
2018-08-08T14:37:54.431Z,25.75
2018-08-08T14:57:31.407Z,25.97
2018-08-08T14:59:58.879Z,29.57
2018-08-08T15:14:41.387Z,31.45
2018-08-08T15:17:08.897Z,30.52
2018-08-08T15:31:51.555Z,33.60
2018-08-08T15:34:19.078Z,37.17
2018-08-08T15:36:46.644Z,23.12
2018-08-08T15:39:13.957Z,22.70
2018-08-08T15:41:41.432Z,19.75
2018-08-08T15:46:35.931Z,25.30
2018-08-08T15:49:03.784Z,30.42
2018-08-08T15:51:31.247Z,24.70
2018-08-08T15:53:58.683Z,23.23
2018-08-08T15:56:26.140Z,30.40
2018-08-08T15:58:53.618Z,24.27
2018-08-08T16:01:21.173Z,23.60
2018-08-08T16:03:48.639Z,25.02
2018-08-08T16:06:16.275Z,23.55
2018-08-08T16:08:43.915Z,21.77
2018-08-08T16:11:11.391Z,22.52
2018-08-08T16:13:38.887Z,22.90
2018-08-08T16:16:06.326Z,18.23
2018-08-08T16:18:33.876Z,20.40
2018-08-08T16:21:01.299Z,23.60
2018-08-08T16:23:28.804Z,22.90
2018-08-08T16:25:56.339Z,20.35
2018-08-08T16:28:23.754Z,25.02
2018-08-08T16:30:51.255Z,18.05
2018-08-08T16:40:39.808Z,18.10
2018-08-08T16:43:07.971Z,24.65
2018-08-08T16:45:35.463Z,21.50
2018-08-08T16:48:03.542Z,20.33
2018-08-08T16:50:30.963Z,24.70
2018-08-08T16:52:58.457Z,18.00
2018-08-08T16:55:25.907Z,17.70
2018-08-08T16:57:53.403Z,20.05
2018-08-08T17:00:20.841Z,22.42
2018-08-08T17:02:48.303Z,20.27
2018-08-08T17:05:15.771Z,17.37
2018-08-08T17:07:43.202Z,21.05
2018-08-08T17:10:10.718Z,18.60
2018-08-08T17:12:38.199Z,24.65
2018-08-08T17:15:05.767Z,21.87
2018-08-08T17:17:33.173Z,20.45
2018-08-08T17:20:00.768Z,19.75
2018-08-08T17:22:28.330Z,15.90
2018-08-08T17:24:55.803Z,17.58
2018-08-08T17:27:23.260Z,15.48
2018-08-08T17:29:50.754Z,14.40
2018-08-08T17:32:18.280Z,16.65
2018-08-08T17:34:45.756Z,15.18
2018-08-08T17:37:13.263Z,13.45
2018-08-08T17:39:40.674Z,21.58
2018-08-08T17:42:08.212Z,14.80
2018-08-08T17:44:35.663Z,13.05
2018-08-08T17:47:03.212Z,13.82
2018-08-08T17:49:30.666Z,11.25
2018-08-08T17:51:58.141Z,12.55
2018-08-08T17:54:25.593Z,11.60
2018-08-08T17:56:53.875Z,20.45
2018-08-08T17:59:21.388Z,22.73
2018-08-08T18:01:48.900Z,10.65
2018-08-08T18:04:16.359Z,29.73
2018-08-08T18:06:43.828Z,11.70
2018-08-08T18:09:11.248Z,10.40
2018-08-08T18:11:38.744Z,16.90
2018-08-08T18:14:06.382Z,15.00
2018-08-08T18:16:33.864Z,11.15
2018-08-08T18:19:01.260Z,9.38
2018-08-08T18:21:28.678Z,15.77
2018-08-08T18:23:56.168Z,10.85
2018-08-08T18:26:23.709Z,14.52
2018-08-08T18:28:51.107Z,10.93
2018-08-08T18:31:18.535Z,11.98
2018-08-08T18:33:46.080Z,10.45
2018-08-08T18:36:13.562Z,10.35
2018-08-08T18:38:40.971Z,10.30
2018-08-08T18:41:08.446Z,8.60
2018-08-08T18:43:36.048Z,13.30
2018-08-08T18:48:30.664Z,13.53
2018-08-08T18:50:58.170Z,14.75
2018-08-08T18:53:25.759Z,12.30
2018-08-08T18:58:20.384Z,10.77
2018-08-08T19:00:47.821Z,10.65
2018-08-08T19:03:15.276Z,11.10
2018-08-08T19:05:42.745Z,11.35
2018-08-08T19:08:10.160Z,13.52
2018-08-08T19:10:37.668Z,11.80
2018-08-08T19:13:05.169Z,20.33
2018-08-08T19:15:32.637Z,14.48
2018-08-08T19:18:00.131Z,16.37
2018-08-08T19:20:27.653Z,12.13
2018-08-08T19:22:55.389Z,9.18
2018-08-08T19:25:22.894Z,14.68
2018-08-08T19:27:50.343Z,13.35
2018-08-08T19:30:17.886Z,15.63
2018-08-08T19:32:45.447Z,13.52
2018-08-08T19:35:12.921Z,13.18
2018-08-08T19:37:40.390Z,30.95
2018-08-08T19:40:07.926Z,15.20
2018-08-08T19:42:35.379Z,13.88
2018-08-08T19:45:02.815Z,30.83
2018-08-08T19:47:30.259Z,15.50
2018-08-08T19:49:57.699Z,11.95
2018-08-08T19:52:25.184Z,9.57
2018-08-08T19:54:52.662Z,18.40
2018-08-08T19:57:20.143Z,14.38
2018-08-08T19:59:47.674Z,11.27
2018-08-08T20:02:15.144Z,12.70
2018-08-08T20:04:42.581Z,11.52
2018-08-08T20:07:10.059Z,11.27
2018-08-08T20:09:37.547Z,10.48
2018-08-08T20:12:05.020Z,14.55
2018-08-08T20:14:32.427Z,12.52
2018-08-08T20:17:00.533Z,11.27
2018-08-08T20:19:28.075Z,14.85
2018-08-08T20:21:55.554Z,13.80
2018-08-08T20:24:23.322Z,14.50
2018-08-08T20:26:50.758Z,12.18
2018-08-08T20:29:18.185Z,11.85
2018-08-08T20:31:45.700Z,9.38
2018-08-08T20:34:13.135Z,9.45
2018-08-08T20:36:40.574Z,11.77
2018-08-08T20:39:08.159Z,11.25
2018-08-08T20:41:35.671Z,11.00
2018-08-08T20:44:03.134Z,12.13
2018-08-08T20:46:30.559Z,16.90
2018-08-08T20:48:58.034Z,9.77
2018-08-08T20:51:25.495Z,12.93
2018-08-08T20:53:52.992Z,8.75
2018-08-08T20:56:20.399Z,9.65
2018-08-08T20:58:47.895Z,11.27
2018-08-08T21:01:15.387Z,10.07
2018-08-08T21:03:42.844Z,12.55
2018-08-08T21:06:10.299Z,21.40
2018-08-08T21:08:37.809Z,10.35
2018-08-08T21:11:05.271Z,10.32
2018-08-08T21:13:32.744Z,13.20
2018-08-08T21:16:00.311Z,10.73
2018-08-08T21:18:27.817Z,9.65
2018-08-08T21:20:55.391Z,10.77
2018-08-08T21:23:22.827Z,8.98
2018-08-08T21:25:50.295Z,9.13
2018-08-08T21:28:17.778Z,12.45
2018-08-08T21:30:45.214Z,9.52
2018-08-08T21:33:12.681Z,10.50
2018-08-08T21:35:40.110Z,14.60
2018-08-08T21:38:07.555Z,9.57
2018-08-08T21:40:35.070Z,10.77
2018-08-08T21:43:02.514Z,13.68
2018-08-08T21:45:29.979Z,16.00
2018-08-08T21:47:57.452Z,12.63
2018-08-08T21:50:24.985Z,13.73
2018-08-08T21:52:52.390Z,15.00
2018-08-08T21:58:40.296Z,15.52
2018-08-08T22:04:29.287Z,12.10
2018-08-08T22:10:21.448Z,14.52
2018-08-08T22:13:09.487Z,14.52
2018-08-08T22:15:48.645Z,15.55
2018-08-08T22:18:16.134Z,11.20
2018-08-08T22:20:43.540Z,15.63
2018-08-08T22:23:11.000Z,10.65
2018-08-08T22:25:38.551Z,9.90
2018-08-08T22:28:05.984Z,9.27
2018-08-08T22:30:33.448Z,18.70
2018-08-08T22:33:00.899Z,12.45
2018-08-08T22:35:28.471Z,15.40
2018-08-08T22:37:55.994Z,11.45
2018-08-08T22:40:23.516Z,9.40
2018-08-08T22:42:50.946Z,11.02
2018-08-08T22:45:18.429Z,11.57
2018-08-08T22:47:45.876Z,16.95
2018-08-08T22:50:13.285Z,15.02
2018-08-08T22:52:40.707Z,14.13
2018-08-08T22:55:08.294Z,10.85
2018-08-08T22:57:35.782Z,17.30
2018-08-08T23:00:03.212Z,14.25
2018-08-08T23:02:30.648Z,12.93
2018-08-08T23:04:58.119Z,11.60
2018-08-08T23:07:25.535Z,21.08
2018-08-08T23:09:52.945Z,9.77
2018-08-08T23:12:20.397Z,10.48
2018-08-08T23:14:47.880Z,11.70
2018-08-08T23:17:15.335Z,12.52
2018-08-08T23:19:42.760Z,14.30
2018-08-08T23:22:10.195Z,14.77
2018-08-08T23:24:37.759Z,13.60
2018-08-08T23:27:05.211Z,18.10
2018-08-08T23:29:32.622Z,18.73
2018-08-08T23:32:00.196Z,13.10
2018-08-08T23:34:27.676Z,16.08
2018-08-08T23:36:55.153Z,13.38
2018-08-08T23:39:22.583Z,11.60
2018-08-08T23:41:50.104Z,12.07
2018-08-08T23:44:17.584Z,15.23
2018-08-08T23:46:44.979Z,21.45
2018-08-08T23:49:12.488Z,9.68
2018-08-08T23:51:40.152Z,15.90
2018-08-08T23:54:07.547Z,11.63
2018-08-08T23:56:34.958Z,10.93
2018-08-08T23:59:02.435Z,12.10
